Time;durP1;ratioP1;P1;durP2;ratioP2;P2;SDS_P1;SDS_P2;PMS_P1;PMS_P2;Temp;Humidity;BMP_temperature;BMP_pressure;BME280_temperature;BME280_humidity;BME280_pressure;Samples;Min_cycle;Max_cycle;Signal;HPM_P1;HPM_P2
2023/01/26 00:00:45;;;;;;;18.98;9.95;;;1.00;99.90;;;;;;5052268;28;20036;-71
2023/01/26 00:03:11;;;;;;;39.90;16.33;;;1.00;99.90;;;;;;5052288;28;20033;-71
2023/01/26 00:05:37;;;;;;;54.38;18.05;;;1.10;99.90;;;;;;5052108;28;20489;-71
2023/01/26 00:08:03;;;;;;;62.63;22.38;;;0.90;99.90;;;;;;5052601;28;20074;-71
2023/01/26 00:10:29;;;;;;;1.80;1.63;;;0.90;99.90;;;;;;5052271;28;20433;-71
2023/01/26 00:12:55;;;;;;;23.98;12.10;;;1.00;99.90;;;;;;5052150;28;20119;-71
2023/01/26 00:15:21;;;;;;;31.83;11.15;;;1.00;99.90;;;;;;5054491;28;20086;-71
2023/01/26 00:17:46;;;;;;;48.30;19.10;;;1.10;99.90;;;;;;5056584;28;20100;-71
2023/01/26 00:20:12;;;;;;;13.05;5.05;;;1.00;99.90;;;;;;5055956;28;20025;-71
2023/01/26 00:22:38;;;;;;;67.22;20.85;;;1.10;99.90;;;;;;5054396;28;20980;-71
2023/01/26 00:25:04;;;;;;;4.75;3.03;;;1.20;99.90;;;;;;5055991;28;20381;-71
2023/01/26 00:27:32;;;;;;;36.72;17.20;;;1.20;99.90;;;;;;5055580;28;20025;-71
2023/01/26 00:30:01;;;;;;;43.28;16.20;;;1.20;99.90;;;;;;5055889;28;20031;-71
2023/01/26 00:32:26;;;;;;;48.85;16.75;;;1.20;99.90;;;;;;5055658;28;20096;-71
2023/01/26 00:34:52;;;;;;;6.22;2.20;;;1.10;99.90;;;;;;5055931;28;20090;-71
2023/01/26 00:37:18;;;;;;;28.23;12.07;;;1.10;99.90;;;;;;5054271;28;20407;-71
2023/01/26 00:39:43;;;;;;;24.50;8.43;;;1.10;99.90;;;;;;5054405;28;20018;-71
2023/01/26 00:42:12;;;;;;;17.73;10.32;;;1.20;99.90;;;;;;5054033;28;20562;-71
2023/01/26 00:44:40;;;;;;;6.57;3.78;;;1.20;99.90;;;;;;5054134;28;20480;-71
2023/01/26 00:47:08;;;;;;;0.57;0.57;;;1.20;99.90;;;;;;5054131;28;20044;-71
2023/01/26 00:49:34;;;;;;;22.10;5.93;;;1.30;99.90;;;;;;5054091;28;20020;-71
2023/01/26 00:52:01;;;;;;;32.70;10.70;;;1.30;99.90;;;;;;5055285;28;20021;-71
2023/01/26 00:54:29;;;;;;;36.92;12.68;;;1.40;99.90;;;;;;5054126;28;20039;-71
2023/01/26 00:56:55;;;;;;;31.60;13.57;;;1.30;99.90;;;;;;5055476;28;20048;-71
2023/01/26 00:59:21;;;;;;;23.25;6.95;;;1.40;99.90;;;;;;5054235;28;20067;-71
2023/01/26 01:01:47;;;;;;;10.88;4.22;;;1.40;99.90;;;;;;5053832;28;20033;-71
2023/01/26 01:04:13;;;;;;;24.92;12.02;;;1.30;99.90;;;;;;5053997;28;20044;-71
2023/01/26 01:06:39;;;;;;;28.48;9.00;;;1.30;99.90;;;;;;5053617;28;20111;-71
2023/01/26 01:09:05;;;;;;;26.73;12.30;;;1.30;99.90;;;;;;5037433;28;20108;-71
2023/01/26 01:11:31;;;;;;;22.10;7.93;;;1.20;99.90;;;;;;5054560;28;20033;-71
2023/01/26 01:13:56;;;;;;;6.55;4.80;;;1.20;99.90;;;;;;5053945;28;20017;-71
2023/01/26 01:16:23;;;;;;;14.50;2.75;;;1.20;99.90;;;;;;5055228;28;20507;-71
2023/01/26 01:18:54;;;;;;;39.97;17.45;;;1.20;99.90;;;;;;5053437;28;20498;-71
2023/01/26 01:21:22;;;;;;;15.13;5.40;;;1.30;99.90;;;;;;5054861;28;20025;-71
2023/01/26 01:23:48;;;;;;;7.53;6.85;;;1.30;99.90;;;;;;5054884;28;20389;-71
2023/01/26 01:26:14;;;;;;;6.38;5.30;;;1.30;99.90;;;;;;5054729;28;20040;-71
2023/01/26 01:28:41;;;;;;;22.92;8.90;;;1.40;99.90;;;;;;5053623;28;20116;-71
2023/01/26 01:31:13;;;;;;;14.32;4.55;;;1.50;99.90;;;;;;5054573;28;20029;-71
2023/01/26 01:33:40;;;;;;;44.47;17.27;;;1.30;99.90;;;;;;5054737;28;20033;-71
2023/01/26 01:36:11;;;;;;;24.98;7.72;;;1.30;99.90;;;;;;5054472;28;20097;-71
2023/01/26 01:38:37;;;;;;;12.90;10.88;;;1.30;99.90;;;;;;5054457;28;20120;-71
2023/01/26 01:41:03;;;;;;;16.38;6.53;;;1.40;99.90;;;;;;5054365;28;20096;-71
2023/01/26 01:43:29;;;;;;;9.07;3.88;;;1.40;99.90;;;;;;5054631;28;20460;-71
2023/01/26 01:45:55;;;;;;;33.38;9.43;;;1.50;99.90;;;;;;5054305;28;20053;-71
2023/01/26 01:48:37;;;;;;;4.68;4.28;;;1.30;99.90;;;;;;5054300;28;20115;-71
2023/01/26 01:51:17;;;;;;;2.30;2.03;;;1.50;99.90;;;;;;5052993;28;20070;-71
2023/01/26 01:53:46;;;;;;;9.75;4.47;;;1.50;99.90;;;;;;5054253;28;20021;-71
2023/01/26 01:56:20;;;;;;;18.23;9.65;;;1.50;99.90;;;;;;5052875;28;20032;-71
2023/01/26 01:58:49;;;;;;;2.38;2.25;;;1.40;99.90;;;;;;5052969;28;20112;-71
2023/01/26 02:01:15;;;;;;;6.32;4.93;;;1.40;99.90;;;;;;5054066;28;20033;-71
2023/01/26 02:03:43;;;;;;;5.07;2.33;;;1.70;99.90;;;;;;5036320;28;20021;-71
2023/01/26 02:06:15;;;;;;;23.05;6.22;;;1.80;99.90;;;;;;5054129;28;20525;-71
2023/01/26 02:08:49;;;;;;;20.80;9.15;;;1.60;99.90;;;;;;5035967;28;20037;-71
2023/01/26 02:11:20;;;;;;;1.35;1.25;;;1.70;99.90;;;;;;5046716;28;20492;-71
2023/01/26 02:13:47;;;;;;;5.17;1.07;;;1.70;99.90;;;;;;5035813;28;20025;-71
2023/01/26 02:16:14;;;;;;;3.83;3.55;;;1.70;99.90;;;;;;5046888;28;20021;-71
2023/01/26 02:18:41;;;;;;;3.75;1.73;;;1.80;99.90;;;;;;5053837;28;20032;-71
2023/01/26 02:21:09;;;;;;;0.10;0.10;;;1.80;99.90;;;;;;5053825;28;20083;-71
2023/01/26 02:24:05;;;;;;;0.20;0.20;;;1.90;99.90;;;;;;5053464;28;20041;-71
2023/01/26 02:26:35;;;;;;;2.35;2.05;;;2.10;99.90;;;;;;5039028;28;20053;-71
2023/01/26 02:29:06;;;;;;;9.05;2.47;;;2.20;99.90;;;;;;5050017;28;20027;-71
2023/01/26 02:31:32;;;;;;;5.63;5.22;;;2.20;99.90;;;;;;5052532;28;20045;-71
2023/01/26 02:33:58;;;;;;;7.57;5.32;;;2.20;99.90;;;;;;5053145;28;20053;-71
2023/01/26 02:36:29;;;;;;;10.77;4.50;;;2.00;99.90;;;;;;5053103;28;20073;-71
2023/01/26 02:39:08;;;;;;;5.93;4.28;;;2.00;99.90;;;;;;5035524;28;20067;-71
2023/01/26 02:44:19;;;;;;;11.68;6.20;;;1.90;99.90;;;;;;5047849;28;20479;-71
2023/01/26 02:46:44;;;;;;;6.53;3.42;;;1.90;99.90;;;;;;5052203;28;20121;-71
2023/01/26 02:51:56;;;;;;;23.13;6.50;;;1.90;99.90;;;;;;5051822;28;20053;-71
2023/01/26 02:57:07;;;;;;;2.05;1.95;;;1.90;99.90;;;;;;5051824;28;20025;-71
2023/01/26 02:59:33;;;;;;;5.97;2.53;;;1.80;99.90;;;;;;5051728;28;20040;-72
2023/01/26 03:01:58;;;;;;;2.35;1.90;;;1.90;99.90;;;;;;5051766;28;20055;-71
2023/01/26 03:04:24;;;;;;;22.00;9.13;;;2.00;99.90;;;;;;5053032;28;20031;-71
2023/01/26 03:06:51;;;;;;;21.13;5.75;;;1.90;99.90;;;;;;5051189;28;20090;-71
2023/01/26 03:09:17;;;;;;;28.55;6.35;;;1.80;99.90;;;;;;5051697;28;20029;-71
2023/01/26 03:11:42;;;;;;;31.27;13.55;;;1.70;99.90;;;;;;5051611;28;20461;-71
2023/01/26 03:14:10;;;;;;;4.32;3.92;;;1.80;99.90;;;;;;5051491;28;20532;-71
2023/01/26 03:16:37;;;;;;;2.63;1.35;;;1.70;99.90;;;;;;5052900;28;20025;-71
2023/01/26 03:29:46;;;;;;;23.08;9.55;;;1.80;99.90;;;;;;5051372;28;20036;-71
2023/01/26 03:32:13;;;;;;;0.85;0.85;;;1.70;99.90;;;;;;5052294;28;20523;-71
2023/01/26 03:34:41;;;;;;;14.90;6.70;;;1.70;99.90;;;;;;5050918;28;20055;-71
2023/01/26 03:37:07;;;;;;;13.63;8.18;;;1.90;99.90;;;;;;5051325;28;20442;-71
2023/01/26 03:56:23;;;;;;;13.32;7.47;;;2.30;99.90;;;;;;5056566;28;20432;-71
2023/01/26 03:59:06;;;;;;;3.97;3.78;;;2.20;99.90;;;;;;5055008;28;20409;-71
2023/01/26 04:01:39;;;;;;;0.80;0.75;;;2.20;99.90;;;;;;5056310;28;20028;-71
2023/01/26 04:09:42;;;;;;;3.30;1.17;;;1.90;99.90;;;;;;5054745;28;20037;-71
2023/01/26 04:12:09;;;;;;;0.85;0.85;;;1.90;99.90;;;;;;5055164;28;20091;-71
2023/01/26 04:22:56;;;;;;;0.15;0.15;;;2.20;99.90;;;;;;5054511;28;20516;-71
2023/01/26 04:25:22;;;;;;;0.00;0.00;;;2.20;99.90;;;;;;5054617;28;20017;-71
2023/01/26 04:27:48;;;;;;;0.38;0.38;;;2.30;99.90;;;;;;5054925;28;20032;-71
2023/01/26 04:30:16;;;;;;;23.58;4.05;;;2.30;99.90;;;;;;5037876;28;20056;-71
2023/01/26 04:32:44;;;;;;;7.35;3.25;;;2.30;99.90;;;;;;5054359;28;20029;-71
2023/01/26 04:35:10;;;;;;;2.17;1.27;;;2.20;99.90;;;;;;5054238;28;20075;-71
2023/01/26 04:37:39;;;;;;;6.70;4.68;;;2.40;99.90;;;;;;5038097;28;20388;-71
2023/01/26 04:40:06;;;;;;;12.75;3.22;;;2.50;99.90;;;;;;5054462;28;20102;-71
2023/01/26 04:42:34;;;;;;;0.10;0.10;;;2.30;99.90;;;;;;5054325;28;20078;-71
2023/01/26 04:45:02;;;;;;;4.97;3.47;;;2.30;99.90;;;;;;5054053;28;20476;-71
2023/01/26 04:47:29;;;;;;;1.15;0.90;;;2.40;99.90;;;;;;5054039;28;20464;-71
2023/01/26 04:49:55;;;;;;;1.08;1.08;;;2.60;99.90;;;;;;5055430;28;20351;-71
2023/01/26 04:52:22;;;;;;;3.10;1.25;;;2.60;99.90;;;;;;5054143;28;20029;-71
2023/01/26 04:54:49;;;;;;;5.82;2.22;;;2.70;99.90;;;;;;5037752;28;20090;-71
2023/01/26 04:57:19;;;;;;;8.60;5.75;;;2.80;99.90;;;;;;5055571;28;20362;-71
2023/01/26 04:59:47;;;;;;;9.20;4.68;;;2.40;99.90;;;;;;5053511;28;20430;-71
2023/01/26 05:02:13;;;;;;;0.35;0.35;;;2.50;99.90;;;;;;5054479;28;20092;-72
2023/01/26 05:04:39;;;;;;;0.82;0.82;;;2.70;99.90;;;;;;5054757;28;20410;-72
2023/01/26 05:07:05;;;;;;;0.65;0.65;;;2.60;99.90;;;;;;5053871;28;20025;-71
2023/01/26 05:09:32;;;;;;;1.73;1.63;;;2.70;99.90;;;;;;5054041;28;20036;-71
2023/01/26 05:12:41;;;;;;;5.68;1.02;;;2.70;99.90;;;;;;5055259;28;20064;-71
2023/01/26 05:15:31;;;;;;;0.22;0.22;;;2.30;99.90;;;;;;5052891;28;20029;-71
2023/01/26 05:18:08;;;;;;;10.90;4.97;;;2.30;99.90;;;;;;5053400;28;20032;-72
2023/01/26 05:20:46;;;;;;;6.28;1.70;;;2.10;99.90;;;;;;5053682;28;20033;-71
2023/01/26 05:23:25;;;;;;;1.05;1.05;;;2.10;99.90;;;;;;5053533;28;20029;-71
2023/01/26 05:26:23;;;;;;;4.20;3.70;;;2.40;99.90;;;;;;5034400;28;20489;-72
2023/01/26 05:29:02;;;;;;;1.17;0.68;;;2.40;99.90;;;;;;5053735;28;20758;-71
2023/01/26 05:31:28;;;;;;;14.75;4.63;;;2.40;99.90;;;;;;5052987;28;20036;-71
2023/01/26 05:33:54;;;;;;;5.78;2.67;;;2.20;99.90;;;;;;5053645;28;20017;-71
2023/01/26 05:36:22;;;;;;;4.35;3.85;;;2.10;99.90;;;;;;5052997;28;20036;-71
2023/01/26 05:38:48;;;;;;;4.30;1.85;;;2.00;99.90;;;;;;5053322;28;20124;-71
2023/01/26 05:41:16;;;;;;;7.93;3.58;;;2.00;99.90;;;;;;5053051;28;20029;-71
2023/01/26 05:44:02;;;;;;;1.38;1.33;;;2.00;99.90;;;;;;5042884;28;20099;-71
2023/01/26 05:46:37;;;;;;;3.00;1.45;;;1.90;99.90;;;;;;5037615;28;20033;-71
2023/01/26 05:49:04;;;;;;;4.97;3.83;;;2.10;99.90;;;;;;5053086;28;20017;-71
2023/01/26 05:51:29;;;;;;;1.75;1.65;;;2.10;99.90;;;;;;5052941;28;20086;-71
2023/01/26 05:53:55;;;;;;;8.77;2.92;;;2.10;99.90;;;;;;5036468;28;20032;-71
2023/01/26 05:56:21;;;;;;;5.28;1.50;;;2.10;99.90;;;;;;5054015;28;20033;-71
2023/01/26 05:58:53;;;;;;;1.77;1.67;;;2.30;99.90;;;;;;5053152;28;20025;-71
2023/01/26 06:01:18;;;;;;;7.95;4.13;;;2.20;99.90;;;;;;5053929;28;20089;-71
2023/01/26 06:03:50;;;;;;;1.85;1.00;;;2.20;99.90;;;;;;5037202;28;20044;-71
2023/01/26 06:06:15;;;;;;;5.85;1.95;;;2.00;99.90;;;;;;5036008;28;20024;-71
2023/01/26 06:08:51;;;;;;;0.25;0.25;;;2.10;99.90;;;;;;5052779;28;20033;-71
2023/01/26 06:11:32;;;;;;;1.65;1.55;;;2.10;99.90;;;;;;5053284;28;20037;-71
2023/01/26 06:14:14;;;;;;;0.35;0.35;;;2.10;99.90;;;;;;5052244;28;20021;-71
2023/01/26 06:16:40;;;;;;;1.70;1.58;;;2.30;99.90;;;;;;5052267;28;20025;-72
2023/01/26 06:19:10;;;;;;;3.00;2.50;;;2.20;99.90;;;;;;5052786;28;20376;-71
2023/01/26 06:21:37;;;;;;;4.18;2.85;;;2.10;99.90;;;;;;5052259;28;20025;-71
2023/01/26 06:24:04;;;;;;;3.50;1.90;;;2.10;99.90;;;;;;5036030;28;20107;-71
2023/01/26 06:26:29;;;;;;;1.80;1.70;;;2.10;99.90;;;;;;5052243;28;20032;-71
2023/01/26 06:28:56;;;;;;;0.50;0.50;;;2.10;99.90;;;;;;5035660;28;20063;-71
2023/01/26 06:31:28;;;;;;;5.68;3.65;;;2.10;99.90;;;;;;5052384;28;20083;-71
2023/01/26 06:33:55;;;;;;;2.08;1.60;;;2.10;99.90;;;;;;5052186;28;20029;-71
2023/01/26 06:36:21;;;;;;;0.10;0.10;;;2.10;99.90;;;;;;5051689;28;20440;-71
2023/01/26 06:38:49;;;;;;;4.68;4.22;;;2.20;99.90;;;;;;5052003;28;20055;-71
2023/01/26 06:41:16;;;;;;;0.10;0.10;;;2.10;99.90;;;;;;5052004;28;20033;-71
2023/01/26 06:43:45;;;;;;;5.60;3.67;;;2.20;99.90;;;;;;5051408;28;20519;-72
2023/01/26 06:46:13;;;;;;;0.20;0.20;;;2.30;99.90;;;;;;5051917;28;20029;-72
2023/01/26 06:48:39;;;;;;;0.30;0.30;;;2.40;99.90;;;;;;5051574;28;20465;-71
2023/01/26 06:51:17;;;;;;;2.17;2.08;;;2.40;99.90;;;;;;5051786;28;20032;-72
2023/01/26 06:53:51;;;;;;;19.33;13.48;;;2.30;99.90;;;;;;5051675;28;20485;-72
2023/01/26 06:56:27;;;;;;;4.32;3.40;;;2.60;99.90;;;;;;5051370;28;20029;-72
2023/01/26 06:59:17;;;;;;;6.57;5.47;;;2.60;99.90;;;;;;5051202;28;20485;-71
2023/01/26 07:02:02;;;;;;;7.70;3.20;;;2.60;99.90;;;;;;5052809;28;20067;-71
2023/01/26 07:04:28;;;;;;;0.85;0.85;;;2.70;99.90;;;;;;5044550;28;20678;-71
2023/01/26 07:06:53;;;;;;;19.20;6.90;;;2.70;99.90;;;;;;5053872;28;20020;-70
2023/01/26 07:09:19;;;;;;;2.30;0.75;;;2.60;99.90;;;;;;5052373;28;20033;-71
2023/01/26 07:11:45;;;;;;;1.30;1.27;;;2.70;99.90;;;;;;5054063;28;20063;-71
2023/01/26 07:14:10;;;;;;;0.45;0.45;;;2.50;99.90;;;;;;5048901;28;20040;-71
2023/01/26 07:16:36;;;;;;;9.02;1.75;;;2.60;99.90;;;;;;5044380;28;20404;-71
2023/01/26 07:19:02;;;;;;;1.25;1.20;;;2.70;99.90;;;;;;5044908;28;20025;-71
2023/01/26 07:21:27;;;;;;;5.82;0.90;;;2.50;99.90;;;;;;5046908;28;20059;-71
2023/01/26 07:23:54;;;;;;;1.75;1.45;;;2.70;99.90;;;;;;5055094;28;20047;-71
2023/01/26 07:26:20;;;;;;;0.20;0.20;;;2.60;99.90;;;;;;5060642;28;20035;-71
2023/01/26 07:28:46;;;;;;;15.32;3.50;;;2.60;99.90;;;;;;5043021;28;20033;-71
2023/01/26 07:31:12;;;;;;;6.00;1.90;;;2.90;99.90;;;;;;5049756;28;20078;-71
2023/01/26 07:33:38;;;;;;;3.15;2.15;;;2.90;99.90;;;;;;5026903;28;20481;-71
2023/01/26 07:36:05;;;;;;;0.10;0.10;;;3.00;99.90;;;;;;5048167;28;20035;-71
2023/01/26 07:38:32;;;;;;;8.20;1.85;;;3.10;99.90;;;;;;5056912;28;20051;-71
2023/01/26 07:40:58;;;;;;;0.47;0.47;;;3.10;99.90;;;;;;5054382;28;20536;-71
2023/01/26 07:43:24;;;;;;;0.63;0.63;;;3.00;99.90;;;;;;5052050;28;20179;-71
2023/01/26 07:45:53;;;;;;;0.00;0.00;;;3.10;99.90;;;;;;5037462;28;20111;-71
2023/01/26 07:48:21;;;;;;;0.47;0.20;;;3.30;99.90;;;;;;5063079;28;20361;-71
2023/01/26 07:50:47;;;;;;;8.02;3.45;;;3.20;99.90;;;;;;5060201;28;20085;-71
2023/01/26 07:53:18;;;;;;;26.13;6.18;;;2.90;99.90;;;;;;5056173;28;20678;-71
2023/01/26 07:55:44;;;;;;;7.93;4.65;;;2.70;99.90;;;;;;5043640;28;20035;-70
2023/01/26 07:58:10;;;;;;;8.73;2.65;;;2.60;99.90;;;;;;5027787;28;20025;-71
2023/01/26 08:00:37;;;;;;;1.65;1.55;;;2.50;99.90;;;;;;5042868;28;20105;-71
2023/01/26 08:03:03;;;;;;;6.53;4.43;;;2.60;99.90;;;;;;5042789;28;20112;-71
2023/01/26 08:05:30;;;;;;;4.50;2.08;;;2.60;99.90;;;;;;5042535;28;20531;-71
2023/01/26 08:07:59;;;;;;;5.10;4.63;;;2.60;99.90;;;;;;5048977;28;20802;-71
2023/01/26 08:10:26;;;;;;;0.95;0.95;;;2.60;99.90;;;;;;5042094;28;20474;-71
2023/01/26 08:12:52;;;;;;;5.07;2.95;;;2.60;99.90;;;;;;5054040;28;20021;-71
2023/01/26 08:15:17;;;;;;;3.25;2.13;;;2.70;99.90;;;;;;5040204;28;20026;-71
2023/01/26 08:17:43;;;;;;;5.40;4.65;;;2.80;99.90;;;;;;5057867;28;20055;-71
2023/01/26 08:20:09;;;;;;;0.40;0.40;;;2.90;99.90;;;;;;5050093;28;20027;-71
2023/01/26 08:22:35;;;;;;;1.25;1.05;;;2.90;99.90;;;;;;5043388;28;20144;-71
2023/01/26 08:25:01;;;;;;;2.30;2.10;;;2.90;99.90;;;;;;5052774;28;20525;-71
2023/01/26 08:27:26;;;;;;;3.30;1.75;;;2.90;99.90;;;;;;5054315;28;20430;-71
2023/01/26 08:29:52;;;;;;;0.90;0.90;;;3.00;99.90;;;;;;5049265;28;20119;-71
2023/01/26 08:32:18;;;;;;;11.82;7.00;;;3.00;99.90;;;;;;5048787;28;20053;-71
2023/01/26 08:34:43;;;;;;;4.78;4.30;;;3.00;99.90;;;;;;5048044;28;20079;-71
2023/01/26 08:37:09;;;;;;;4.13;2.72;;;3.10;99.90;;;;;;5059611;28;20037;-71
2023/01/26 08:39:35;;;;;;;0.43;0.40;;;3.10;99.90;;;;;;5061905;28;20107;-72
2023/01/26 08:42:01;;;;;;;2.17;0.65;;;3.20;99.90;;;;;;5056017;28;20048;-72
2023/01/26 08:44:26;;;;;;;0.88;0.88;;;3.20;99.90;;;;;;5050553;28;20116;-71
2023/01/26 08:46:52;;;;;;;0.52;0.52;;;3.30;99.90;;;;;;5063579;28;20477;-72
2023/01/26 08:49:18;;;;;;;0.63;0.63;;;3.40;99.90;;;;;;5062557;28;20027;-71
2023/01/26 08:51:43;;;;;;;4.90;4.43;;;3.60;99.90;;;;;;5065411;28;20028;-71
2023/01/26 08:54:09;;;;;;;0.57;0.57;;;3.60;99.90;;;;;;5061660;28;20031;-71
2023/01/26 08:56:35;;;;;;;1.17;1.10;;;3.90;99.90;;;;;;5055672;28;20041;-71
2023/01/26 08:59:01;;;;;;;11.90;7.85;;;4.10;99.90;;;;;;5054131;28;20063;-72
2023/01/26 09:01:27;;;;;;;17.25;4.72;;;4.20;99.90;;;;;;5052928;28;20485;-72
2023/01/26 09:03:54;;;;;;;0.80;0.80;;;4.30;99.90;;;;;;5053620;28;20064;-71
2023/01/26 09:06:20;;;;;;;6.70;2.83;;;4.70;99.90;;;;;;5048597;28;20480;-72
2023/01/26 09:08:46;;;;;;;0.30;0.30;;;4.90;99.90;;;;;;5055562;28;20087;-72
2023/01/26 09:11:12;;;;;;;0.85;0.82;;;4.90;99.90;;;;;;5052869;28;20025;-71
2023/01/26 09:13:39;;;;;;;1.65;1.55;;;5.00;99.90;;;;;;5064041;28;20464;-71
2023/01/26 09:16:07;;;;;;;1.48;1.38;;;5.10;99.90;;;;;;5053629;28;20074;-72
2023/01/26 09:18:33;;;;;;;1.38;1.17;;;5.20;99.90;;;;;;5052731;28;20028;-71
2023/01/26 09:21:06;;;;;;;1.00;0.57;;;5.50;99.90;;;;;;5046957;28;20044;-71
2023/01/26 09:23:34;;;;;;;7.38;4.50;;;5.50;99.90;;;;;;5036073;28;20124;-71
2023/01/26 09:26:00;;;;;;;10.02;4.07;;;5.60;99.90;;;;;;5047661;28;20453;-71
2023/01/26 09:28:26;;;;;;;0.10;0.10;;;5.60;99.90;;;;;;5057857;28;20090;-72
2023/01/26 09:30:52;;;;;;;19.55;4.82;;;5.80;99.90;;;;;;5056044;28;20025;-72
2023/01/26 09:33:17;;;;;;;0.00;0.00;;;5.80;99.90;;;;;;5038712;28;20037;-72
2023/01/26 09:35:43;;;;;;;5.53;2.78;;;5.90;99.90;;;;;;5055451;28;20086;-71
2023/01/26 09:38:09;;;;;;;5.30;2.70;;;6.00;99.90;;;;;;5065853;28;20507;-71
2023/01/26 09:40:43;;;;;;;2.40;1.85;;;6.10;99.90;;;;;;5056732;28;20064;-72
2023/01/26 09:43:34;;;;;;;11.20;2.97;;;6.20;99.90;;;;;;5040869;28;20065;-71
2023/01/26 09:46:21;;;;;;;3.03;0.47;;;6.20;99.90;;;;;;5045957;28;20039;-72
2023/01/26 09:48:52;;;;;;;2.30;1.42;;;6.20;99.90;;;;;;5064202;28;20033;-72
2023/01/26 09:51:22;;;;;;;1.15;1.15;;;6.30;99.90;;;;;;5063998;28;20029;-72
2023/01/26 09:53:58;;;;;;;7.57;1.85;;;6.50;99.90;;;;;;5062314;28;20422;-72
2023/01/26 09:56:29;;;;;;;7.15;4.43;;;6.60;99.90;;;;;;5053950;28;20115;-72
2023/01/26 09:59:02;;;;;;;21.98;4.70;;;6.80;99.90;;;;;;5053187;28;20028;-71
2023/01/26 10:01:44;;;;;;;0.75;0.75;;;6.90;99.90;;;;;;5053181;28;20077;-70
2023/01/26 10:04:15;;;;;;;4.25;1.38;;;6.90;99.90;;;;;;5064150;28;20049;-70
2023/01/26 10:06:42;;;;;;;0.25;0.25;;;6.90;99.90;;;;;;5048525;28;20071;-71
2023/01/26 10:09:44;;;;;;;2.95;0.95;;;6.90;99.90;;;;;;5048755;28;20052;-71
2023/01/26 10:12:16;;;;;;;0.20;0.20;;;7.00;99.90;;;;;;5058876;28;20086;-71
2023/01/26 10:15:07;;;;;;;0.30;0.30;;;7.10;99.90;;;;;;5063243;28;20469;-70
2023/01/26 10:17:42;;;;;;;2.22;2.00;;;7.20;99.90;;;;;;5044860;28;20040;-70
2023/01/26 10:20:32;;;;;;;10.15;0.55;;;7.30;99.90;;;;;;5052693;28;20037;-71
2023/01/26 10:23:03;;;;;;;7.00;0.55;;;7.20;99.90;;;;;;5049249;28;20037;-71
2023/01/26 10:25:35;;;;;;;8.50;2.53;;;7.30;99.90;;;;;;5066236;28;20028;-70
2023/01/26 10:28:13;;;;;;;20.90;2.33;;;7.30;99.90;;;;;;5063111;28;20016;-71
2023/01/26 10:30:40;;;;;;;0.82;0.82;;;7.20;99.90;;;;;;5029703;28;20477;-70
2023/01/26 10:33:25;;;;;;;0.82;0.82;;;7.20;99.90;;;;;;5050638;28;20017;-70
2023/01/26 10:35:50;;;;;;;3.35;2.03;;;7.40;99.90;;;;;;5049791;28;20024;-70
2023/01/26 10:38:31;;;;;;;8.63;3.30;;;7.50;99.90;;;;;;5063975;28;20033;-70
2023/01/26 10:41:03;;;;;;;0.15;0.15;;;7.20;99.90;;;;;;5056335;28;20048;-71
2023/01/26 10:43:40;;;;;;;0.17;0.17;;;7.20;99.90;;;;;;5053762;28;20434;-72
2023/01/26 10:46:05;;;;;;;23.17;1.65;;;7.30;99.90;;;;;;5056108;28;20090;-71
2023/01/26 10:48:33;;;;;;;0.08;0.08;;;7.40;99.90;;;;;;5065359;28;20036;-70
2023/01/26 10:51:15;;;;;;;14.30;3.85;;;7.50;99.90;;;;;;5061541;28;20558;-71
2023/01/26 10:53:40;;;;;;;2.90;0.70;;;7.40;99.90;;;;;;5047772;28;20028;-70
2023/01/26 10:56:16;;;;;;;2.17;1.33;;;7.40;99.90;;;;;;5056699;28;20024;-70
2023/01/26 10:59:07;;;;;;;7.65;1.55;;;7.60;99.90;;;;;;5051094;28;20109;-71
2023/01/26 11:02:13;;;;;;;2.53;1.45;;;7.50;99.90;;;;;;5051274;28;20032;-71
2023/01/26 11:04:40;;;;;;;0.10;0.10;;;7.60;99.90;;;;;;5057754;28;20041;-70
2023/01/26 11:07:36;;;;;;;0.30;0.30;;;7.50;99.90;;;;;;5056096;28;20021;-70
2023/01/26 11:10:19;;;;;;;0.00;0.00;;;7.50;99.90;;;;;;5034654;28;20660;-70
2023/01/26 11:12:45;;;;;;;0.10;0.10;;;7.60;99.90;;;;;;5048109;28;20029;-70
2023/01/26 11:15:29;;;;;;;4.13;1.08;;;7.60;99.90;;;;;;5043658;28;20021;-71
2023/01/26 11:18:03;;;;;;;0.93;0.47;;;7.70;99.90;;;;;;5056335;28;20055;-70
2023/01/26 11:20:45;;;;;;;1.92;1.75;;;7.80;99.90;;;;;;5052375;28;20166;-71
2023/01/26 11:23:38;;;;;;;0.20;0.20;;;8.00;99.90;;;;;;5052476;28;20132;-70
2023/01/26 11:26:29;;;;;;;0.00;0.00;;;8.00;99.90;;;;;;5052771;28;20083;-70
2023/01/26 11:29:15;;;;;;;2.57;1.20;;;8.20;99.90;;;;;;5052488;28;20029;-71
2023/01/26 11:32:00;;;;;;;0.00;0.00;;;8.10;99.90;;;;;;5052485;28;20057;-70
2023/01/26 11:34:39;;;;;;;0.55;0.55;;;8.20;99.90;;;;;;5052161;28;20551;-70
2023/01/26 11:37:42;;;;;;;0.08;0.08;;;8.30;99.90;;;;;;5052476;28;20474;-70
2023/01/26 11:40:11;;;;;;;0.10;0.10;;;8.40;99.90;;;;;;5052306;28;20056;-69
2023/01/26 11:42:57;;;;;;;0.10;0.10;;;8.40;99.90;;;;;;5052316;28;20041;-70
2023/01/26 11:45:33;;;;;;;13.50;1.35;;;8.50;99.90;;;;;;5052454;28;20033;-70
2023/01/26 11:48:23;;;;;;;0.57;0.57;;;8.40;99.90;;;;;;5052176;28;20068;-70
2023/01/26 11:51:03;;;;;;;2.05;0.80;;;8.40;99.90;;;;;;5046627;28;20033;-69
2023/01/26 11:53:46;;;;;;;0.93;0.73;;;8.50;99.90;;;;;;5049590;28;20431;-72
2023/01/26 11:56:18;;;;;;;1.52;0.85;;;8.60;99.90;;;;;;5066122;28;20392;-77
2023/01/26 11:58:56;;;;;;;0.25;0.25;;;8.40;99.90;;;;;;5052294;28;20094;-78
2023/01/26 12:01:37;;;;;;;0.45;0.45;;;8.60;99.90;;;;;;5052110;28;20029;-78
2023/01/26 12:04:02;;;;;;;1.35;0.73;;;8.70;99.90;;;;;;5050758;28;20091;-78
2023/01/26 12:06:39;;;;;;;4.03;1.20;;;8.70;99.90;;;;;;5051720;28;20021;-77
2023/01/26 12:09:31;;;;;;;0.10;0.10;;;8.60;99.90;;;;;;5052530;28;20048;-77
2023/01/26 12:12:06;;;;;;;;;;;8.70;99.90;;;;;;5056312;28;20032;-76
2023/01/26 12:15:01;;;;;;;2.42;0.82;;;8.70;99.90;;;;;;5054904;28;19944;-77
2023/01/26 12:17:56;;;;;;;0.22;0.22;;;8.60;99.90;;;;;;5055998;28;20024;-77
2023/01/26 12:20:33;;;;;;;2.83;1.90;;;8.60;99.90;;;;;;5054451;28;20024;-77
2023/01/26 12:23:08;;;;;;;3.20;1.58;;;8.70;99.90;;;;;;5055843;28;20037;-77
2023/01/26 12:25:38;;;;;;;1.27;0.30;;;8.60;99.90;;;;;;5055909;28;20029;-77
2023/01/26 12:28:12;;;;;;;4.95;2.92;;;8.60;99.90;;;;;;5055863;28;20040;-77
2023/01/26 12:30:43;;;;;;;0.70;0.30;;;8.50;99.90;;;;;;5055602;28;20032;-79
2023/01/26 12:33:10;;;;;;;14.00;2.85;;;8.40;99.90;;;;;;5054217;28;20401;-77
2023/01/26 12:35:59;;;;;;;4.43;0.65;;;8.40;99.90;;;;;;5055917;28;20036;-77
2023/01/26 12:38:49;;;;;;;17.52;2.65;;;8.40;99.90;;;;;;5055523;28;20407;-77
2023/01/26 12:41:35;;;;;;;0.20;0.20;;;8.30;99.90;;;;;;5054481;28;20064;-77
2023/01/26 12:44:28;;;;;;;1.77;0.65;;;8.30;99.90;;;;;;5055612;28;20029;-77
2023/01/26 12:47:04;;;;;;;0.17;0.17;;;8.30;99.90;;;;;;5054983;28;20021;-77
2023/01/26 12:49:50;;;;;;;2.65;0.57;;;8.40;99.90;;;;;;5055471;28;20029;-77
2023/01/26 12:52:48;;;;;;;5.97;0.63;;;8.50;99.90;;;;;;5055407;28;20036;-77
2023/01/26 12:55:22;;;;;;;0.00;0.00;;;8.30;99.90;;;;;;5047661;28;20136;-76
2023/01/26 12:57:57;;;;;;;3.90;0.43;;;8.50;99.90;;;;;;5055314;28;20033;-77
2023/01/26 13:00:28;;;;;;;15.25;1.65;;;8.60;99.90;;;;;;5055042;28;20037;-77
2023/01/26 13:03:14;;;;;;;0.30;0.30;;;8.50;99.90;;;;;;5055019;28;20043;-77
2023/01/26 13:05:56;;;;;;;2.92;0.65;;;8.50;99.90;;;;;;5055118;28;20491;-77
2023/01/26 13:08:30;;;;;;;2.20;0.70;;;8.40;99.90;;;;;;5055273;28;20499;-77
2023/01/26 13:11:05;;;;;;;0.00;0.00;;;8.30;99.90;;;;;;5055199;28;20767;-77
2023/01/26 13:13:33;;;;;;;0.80;0.55;;;8.50;99.90;;;;;;5055006;28;20029;-77
2023/01/26 13:16:32;;;;;;;1.25;0.55;;;8.40;99.90;;;;;;5054755;28;20029;-77
2023/01/26 13:19:00;;;;;;;0.25;0.20;;;8.40;99.90;;;;;;5043288;28;20045;-77
2023/01/26 13:21:37;;;;;;;5.22;0.55;;;8.50;99.90;;;;;;5054760;28;20544;-76
2023/01/26 13:24:23;;;;;;;0.95;0.90;;;8.60;99.90;;;;;;5055280;28;20071;-77
2023/01/26 13:26:52;;;;;;;2.40;0.88;;;8.70;99.90;;;;;;5050790;28;20106;-78
2023/01/26 13:29:24;;;;;;;1.00;0.28;;;8.80;99.90;;;;;;5054758;28;20380;-77
2023/01/26 13:31:55;;;;;;;5.60;0.93;;;8.80;99.90;;;;;;5053153;28;20438;-77
2023/01/26 13:34:31;;;;;;;0.10;0.10;;;8.70;99.90;;;;;;5054959;28;20028;-76
2023/01/26 13:37:04;;;;;;;0.30;0.30;;;8.90;99.90;;;;;;5054193;28;20029;-78
2023/01/26 13:39:37;;;;;;;4.07;0.68;;;8.90;99.90;;;;;;5054807;28;20040;-77
2023/01/26 13:42:17;;;;;;;5.35;2.55;;;9.10;99.90;;;;;;5054323;28;20568;-77
2023/01/26 13:44:51;;;;;;;0.10;0.10;;;9.00;99.90;;;;;;5054142;28;20397;-77
2023/01/26 13:47:22;;;;;;;0.03;0.03;;;9.00;99.90;;;;;;5052851;28;20051;-77
2023/01/26 13:49:49;;;;;;;0.13;0.13;;;9.50;99.90;;;;;;5054439;28;20037;-77
2023/01/26 13:52:24;;;;;;;0.10;0.10;;;9.60;99.90;;;;;;5054181;28;20100;-78
2023/01/26 13:54:53;;;;;;;0.38;0.20;;;10.10;99.90;;;;;;5054377;28;20029;-76
2023/01/26 13:57:25;;;;;;;1.25;1.25;;;10.30;99.90;;;;;;5036298;28;20037;-77
2023/01/26 13:59:53;;;;;;;0.10;0.10;;;10.30;99.90;;;;;;5052836;28;20033;-77
2023/01/26 14:02:34;;;;;;;21.15;1.10;;;11.00;99.90;;;;;;5053933;28;20043;-77
2023/01/26 14:05:01;;;;;;;0.10;0.10;;;11.10;99.90;;;;;;5054050;28;20512;-76